sensor_id;sensor_type;location;lat;lon;timestamp;P1;durP1;ratioP1;P2;durP2;ratioP2
20101;SDS011;10210;52.284;9.892;2023-02-11T00:02:01;57.07;;;32.47;;
20101;SDS011;10210;52.284;9.892;2023-02-11T00:04:29;56.97;;;33.90;;
20101;SDS011;10210;52.284;9.892;2023-02-11T00:06:55;52.97;;;32.10;;
20101;SDS011;10210;52.284;9.892;2023-02-11T00:09:21;51.87;;;32.53;;
20101;SDS011;10210;52.284;9.892;2023-02-11T00:11:47;62.87;;;34.03;;
20101;SDS011;10210;52.284;9.892;2023-02-11T00:14:13;56.33;;;32.77;;
20101;SDS011;10210;52.284;9.892;2023-02-11T00:16:39;55.23;;;32.43;;
20101;SDS011;10210;52.284;9.892;2023-02-11T00:19:04;59.80;;;34.00;;
20101;SDS011;10210;52.284;9.892;2023-02-11T00:21:31;57.87;;;32.90;;
20101;SDS011;10210;52.284;9.892;2023-02-11T00:23:58;58.67;;;33.93;;
20101;SDS011;10210;52.284;9.892;2023-02-11T00:26:27;55.67;;;33.37;;
20101;SDS011;10210;52.284;9.892;2023-02-11T00:28:56;63.10;;;35.07;;
20101;SDS011;10210;52.284;9.892;2023-02-11T00:31:23;59.10;;;34.83;;
20101;SDS011;10210;52.284;9.892;2023-02-11T00:33:49;57.27;;;33.73;;
20101;SDS011;10210;52.284;9.892;2023-02-11T00:36:18;58.03;;;34.67;;
20101;SDS011;10210;52.284;9.892;2023-02-11T00:38:47;56.00;;;33.90;;
20101;SDS011;10210;52.284;9.892;2023-02-11T00:41:15;61.60;;;36.27;;
20101;SDS011;10210;52.284;9.892;2023-02-11T00:43:42;54.70;;;32.57;;
20101;SDS011;10210;52.284;9.892;2023-02-11T00:46:08;56.93;;;34.50;;
20101;SDS011;10210;52.284;9.892;2023-02-11T00:48:34;60.57;;;34.70;;
20101;SDS011;10210;52.284;9.892;2023-02-11T00:51:00;57.23;;;33.13;;
20101;SDS011;10210;52.284;9.892;2023-02-11T00:53:28;57.97;;;35.43;;
20101;SDS011;10210;52.284;9.892;2023-02-11T00:55:54;61.93;;;35.33;;
20101;SDS011;10210;52.284;9.892;2023-02-11T00:58:20;58.40;;;35.33;;
20101;SDS011;10210;52.284;9.892;2023-02-11T01:00:46;60.93;;;35.03;;
20101;SDS011;10210;52.284;9.892;2023-02-11T01:03:12;62.03;;;34.37;;
20101;SDS011;10210;52.284;9.892;2023-02-11T01:05:38;56.57;;;33.13;;
20101;SDS011;10210;52.284;9.892;2023-02-11T01:08:04;57.93;;;32.30;;
20101;SDS011;10210;52.284;9.892;2023-02-11T01:10:30;64.80;;;35.10;;
20101;SDS011;10210;52.284;9.892;2023-02-11T01:12:56;59.73;;;34.93;;
20101;SDS011;10210;52.284;9.892;2023-02-11T01:15:21;55.90;;;33.80;;
20101;SDS011;10210;52.284;9.892;2023-02-11T01:17:47;57.17;;;33.87;;
20101;SDS011;10210;52.284;9.892;2023-02-11T01:20:18;60.07;;;36.00;;
20101;SDS011;10210;52.284;9.892;2023-02-11T01:22:46;55.10;;;32.90;;
20101;SDS011;10210;52.284;9.892;2023-02-11T01:25:12;56.20;;;33.60;;
20101;SDS011;10210;52.284;9.892;2023-02-11T01:27:38;56.33;;;34.80;;
20101;SDS011;10210;52.284;9.892;2023-02-11T01:30:05;56.27;;;33.30;;
20101;SDS011;10210;52.284;9.892;2023-02-11T01:32:33;56.30;;;33.50;;
20101;SDS011;10210;52.284;9.892;2023-02-11T01:34:59;58.10;;;34.33;;
20101;SDS011;10210;52.284;9.892;2023-02-11T01:37:25;57.27;;;33.90;;
20101;SDS011;10210;52.284;9.892;2023-02-11T01:39:51;59.80;;;33.97;;
20101;SDS011;10210;52.284;9.892;2023-02-11T01:42:18;57.10;;;33.90;;
20101;SDS011;10210;52.284;9.892;2023-02-11T01:44:50;55.77;;;33.70;;
20101;SDS011;10210;52.284;9.892;2023-02-11T01:47:19;54.60;;;32.90;;
20101;SDS011;10210;52.284;9.892;2023-02-11T01:49:56;56.90;;;34.13;;
20101;SDS011;10210;52.284;9.892;2023-02-11T01:55:06;53.93;;;30.67;;
20101;SDS011;10210;52.284;9.892;2023-02-11T01:57:56;52.17;;;31.87;;
20101;SDS011;10210;52.284;9.892;2023-02-11T02:00:27;55.10;;;33.60;;
20101;SDS011;10210;52.284;9.892;2023-02-11T02:08:30;53.90;;;32.13;;
20101;SDS011;10210;52.284;9.892;2023-02-11T02:11:07;54.73;;;34.23;;
20101;SDS011;10210;52.284;9.892;2023-02-11T02:13:34;56.87;;;34.83;;
20101;SDS011;10210;52.284;9.892;2023-02-11T02:16:01;55.63;;;32.17;;
20101;SDS011;10210;52.284;9.892;2023-02-11T02:36:21;58.83;;;33.93;;
20101;SDS011;10210;52.284;9.892;2023-02-11T02:38:58;62.03;;;35.63;;
20101;SDS011;10210;52.284;9.892;2023-02-11T02:41:38;65.40;;;37.87;;
20101;SDS011;10210;52.284;9.892;2023-02-11T02:44:06;58.83;;;35.87;;
20101;SDS011;10210;52.284;9.892;2023-02-11T02:46:33;58.57;;;36.10;;
20101;SDS011;10210;52.284;9.892;2023-02-11T02:49:00;63.27;;;36.20;;
20101;SDS011;10210;52.284;9.892;2023-02-11T02:57:57;58.90;;;35.70;;
20101;SDS011;10210;52.284;9.892;2023-02-11T03:00:36;62.83;;;37.10;;
20101;SDS011;10210;52.284;9.892;2023-02-11T03:06:14;62.57;;;37.47;;
20101;SDS011;10210;52.284;9.892;2023-02-11T03:12:10;64.40;;;36.67;;
20101;SDS011;10210;52.284;9.892;2023-02-11T03:14:38;66.60;;;36.87;;
20101;SDS011;10210;52.284;9.892;2023-02-11T03:17:06;62.70;;;35.83;;
20101;SDS011;10210;52.284;9.892;2023-02-11T03:19:35;66.70;;;36.80;;
20101;SDS011;10210;52.284;9.892;2023-02-11T03:22:07;62.30;;;36.80;;
20101;SDS011;10210;52.284;9.892;2023-02-11T03:25:27;62.43;;;34.47;;
20101;SDS011;10210;52.284;9.892;2023-02-11T03:28:04;57.13;;;33.13;;
20101;SDS011;10210;52.284;9.892;2023-02-11T03:30:59;61.37;;;33.87;;
20101;SDS011;10210;52.284;9.892;2023-02-11T03:33:50;60.87;;;35.93;;
20101;SDS011;10210;52.284;9.892;2023-02-11T03:36:40;60.50;;;35.07;;
20101;SDS011;10210;52.284;9.892;2023-02-11T03:39:19;62.53;;;35.33;;
20101;SDS011;10210;52.284;9.892;2023-02-11T03:41:54;61.20;;;34.27;;
20101;SDS011;10210;52.284;9.892;2023-02-11T03:44:24;60.87;;;34.20;;
20101;SDS011;10210;52.284;9.892;2023-02-11T03:46:55;61.90;;;33.50;;
20101;SDS011;10210;52.284;9.892;2023-02-11T03:49:21;56.50;;;34.13;;
20101;SDS011;10210;52.284;9.892;2023-02-11T03:51:50;56.90;;;33.40;;
20101;SDS011;10210;52.284;9.892;2023-02-11T03:54:20;57.77;;;34.33;;
20101;SDS011;10210;52.284;9.892;2023-02-11T03:56:55;59.17;;;34.40;;
20101;SDS011;10210;52.284;9.892;2023-02-11T03:59:24;56.30;;;30.97;;
20101;SDS011;10210;52.284;9.892;2023-02-11T04:01:50;51.73;;;30.40;;
20101;SDS011;10210;52.284;9.892;2023-02-11T04:04:16;56.60;;;32.50;;
20101;SDS011;10210;52.284;9.892;2023-02-11T04:06:42;59.83;;;33.50;;
20101;SDS011;10210;52.284;9.892;2023-02-11T04:09:08;53.53;;;31.70;;
20101;SDS011;10210;52.284;9.892;2023-02-11T04:11:35;52.37;;;30.80;;
20101;SDS011;10210;52.284;9.892;2023-02-11T04:14:01;57.53;;;33.63;;
20101;SDS011;10210;52.284;9.892;2023-02-11T04:16:26;58.93;;;34.47;;
20101;SDS011;10210;52.284;9.892;2023-02-11T04:18:54;52.90;;;32.20;;
20101;SDS011;10210;52.284;9.892;2023-02-11T04:21:21;56.93;;;33.27;;
20101;SDS011;10210;52.284;9.892;2023-02-11T04:23:47;59.33;;;34.50;;
20101;SDS011;10210;52.284;9.892;2023-02-11T04:26:12;59.73;;;33.20;;
20101;SDS011;10210;52.284;9.892;2023-02-11T04:28:38;54.83;;;33.23;;
20101;SDS011;10210;52.284;9.892;2023-02-11T04:31:04;51.67;;;31.93;;
20101;SDS011;10210;52.284;9.892;2023-02-11T04:33:29;53.67;;;33.63;;
20101;SDS011;10210;52.284;9.892;2023-02-11T04:35:55;53.03;;;32.37;;
20101;SDS011;10210;52.284;9.892;2023-02-11T04:38:21;53.30;;;31.37;;
20101;SDS011;10210;52.284;9.892;2023-02-11T04:40:48;57.00;;;33.33;;
20101;SDS011;10210;52.284;9.892;2023-02-11T04:43:14;52.27;;;31.30;;
20101;SDS011;10210;52.284;9.892;2023-02-11T04:45:40;55.70;;;32.93;;
20101;SDS011;10210;52.284;9.892;2023-02-11T04:48:05;55.60;;;31.87;;
20101;SDS011;10210;52.284;9.892;2023-02-11T04:50:31;54.33;;;31.40;;
20101;SDS011;10210;52.284;9.892;2023-02-11T04:52:57;53.37;;;32.30;;
20101;SDS011;10210;52.284;9.892;2023-02-11T04:55:22;50.90;;;29.37;;
20101;SDS011;10210;52.284;9.892;2023-02-11T04:57:48;50.27;;;31.13;;
20101;SDS011;10210;52.284;9.892;2023-02-11T05:00:14;49.70;;;30.90;;
20101;SDS011;10210;52.284;9.892;2023-02-11T05:02:40;48.20;;;29.30;;
20101;SDS011;10210;52.284;9.892;2023-02-11T05:05:06;47.67;;;28.47;;
20101;SDS011;10210;52.284;9.892;2023-02-11T05:07:32;44.93;;;27.67;;
20101;SDS011;10210;52.284;9.892;2023-02-11T05:09:57;47.43;;;28.97;;
20101;SDS011;10210;52.284;9.892;2023-02-11T05:12:23;43.63;;;27.23;;
20101;SDS011;10210;52.284;9.892;2023-02-11T05:14:49;47.90;;;27.80;;
20101;SDS011;10210;52.284;9.892;2023-02-11T05:17:14;43.73;;;27.60;;
20101;SDS011;10210;52.284;9.892;2023-02-11T05:19:40;45.60;;;27.33;;
20101;SDS011;10210;52.284;9.892;2023-02-11T05:22:06;43.03;;;26.70;;
20101;SDS011;10210;52.284;9.892;2023-02-11T05:24:32;42.67;;;26.63;;
20101;SDS011;10210;52.284;9.892;2023-02-11T05:26:59;42.53;;;26.37;;
20101;SDS011;10210;52.284;9.892;2023-02-11T05:29:25;39.92;;;24.38;;
20101;SDS011;10210;52.284;9.892;2023-02-11T05:31:51;42.33;;;26.07;;
20101;SDS011;10210;52.284;9.892;2023-02-11T05:34:17;38.40;;;24.60;;
20101;SDS011;10210;52.284;9.892;2023-02-11T05:36:43;38.67;;;24.37;;
20101;SDS011;10210;52.284;9.892;2023-02-11T05:39:08;39.20;;;24.70;;
20101;SDS011;10210;52.284;9.892;2023-02-11T05:41:34;35.23;;;22.07;;
20101;SDS011;10210;52.284;9.892;2023-02-11T05:44:00;36.73;;;23.13;;
20101;SDS011;10210;52.284;9.892;2023-02-11T05:46:25;40.23;;;24.70;;
20101;SDS011;10210;52.284;9.892;2023-02-11T05:48:51;36.03;;;22.70;;
20101;SDS011;10210;52.284;9.892;2023-02-11T05:51:17;37.13;;;23.20;;
20101;SDS011;10210;52.284;9.892;2023-02-11T05:53:42;38.20;;;23.13;;
20101;SDS011;10210;52.284;9.892;2023-02-11T05:56:08;37.83;;;23.40;;
20101;SDS011;10210;52.284;9.892;2023-02-11T05:58:34;40.00;;;24.33;;
20101;SDS011;10210;52.284;9.892;2023-02-11T06:01:00;42.13;;;26.10;;
20101;SDS011;10210;52.284;9.892;2023-02-11T06:03:25;40.83;;;23.77;;
20101;SDS011;10210;52.284;9.892;2023-02-11T06:05:51;41.70;;;26.30;;
20101;SDS011;10210;52.284;9.892;2023-02-11T06:08:17;41.57;;;26.13;;
20101;SDS011;10210;52.284;9.892;2023-02-11T06:10:45;43.40;;;26.47;;
20101;SDS011;10210;52.284;9.892;2023-02-11T06:13:11;45.40;;;27.20;;
20101;SDS011;10210;52.284;9.892;2023-02-11T06:15:37;39.00;;;24.23;;
20101;SDS011;10210;52.284;9.892;2023-02-11T06:18:03;44.90;;;26.03;;
20101;SDS011;10210;52.284;9.892;2023-02-11T06:20:29;42.63;;;24.97;;
20101;SDS011;10210;52.284;9.892;2023-02-11T06:22:54;45.80;;;27.03;;
20101;SDS011;10210;52.284;9.892;2023-02-11T06:25:21;45.33;;;26.07;;
20101;SDS011;10210;52.284;9.892;2023-02-11T06:27:47;45.23;;;26.27;;
20101;SDS011;10210;52.284;9.892;2023-02-11T06:30:13;41.93;;;25.50;;
20101;SDS011;10210;52.284;9.892;2023-02-11T06:32:38;42.13;;;25.13;;
20101;SDS011;10210;52.284;9.892;2023-02-11T06:35:04;40.23;;;24.33;;
20101;SDS011;10210;52.284;9.892;2023-02-11T06:37:30;45.93;;;25.00;;
20101;SDS011;10210;52.284;9.892;2023-02-11T06:39:58;41.90;;;23.57;;
20101;SDS011;10210;52.284;9.892;2023-02-11T06:42:24;44.57;;;26.17;;
20101;SDS011;10210;52.284;9.892;2023-02-11T06:44:49;43.33;;;24.63;;
20101;SDS011;10210;52.284;9.892;2023-02-11T06:47:15;44.30;;;26.83;;
20101;SDS011;10210;52.284;9.892;2023-02-11T06:49:40;45.67;;;25.67;;
20101;SDS011;10210;52.284;9.892;2023-02-11T06:52:06;42.27;;;25.27;;
20101;SDS011;10210;52.284;9.892;2023-02-11T06:54:32;42.47;;;25.50;;
20101;SDS011;10210;52.284;9.892;2023-02-11T06:56:57;46.23;;;28.50;;
20101;SDS011;10210;52.284;9.892;2023-02-11T06:59:23;44.20;;;27.30;;
20101;SDS011;10210;52.284;9.892;2023-02-11T07:01:48;46.80;;;27.90;;
20101;SDS011;10210;52.284;9.892;2023-02-11T07:04:14;46.77;;;26.60;;
20101;SDS011;10210;52.284;9.892;2023-02-11T07:06:40;41.07;;;23.83;;
20101;SDS011;10210;52.284;9.892;2023-02-11T07:09:06;43.83;;;25.43;;
20101;SDS011;10210;52.284;9.892;2023-02-11T07:11:32;48.03;;;27.23;;
20101;SDS011;10210;52.284;9.892;2023-02-11T07:13:59;40.33;;;25.17;;
20101;SDS011;10210;52.284;9.892;2023-02-11T07:16:32;45.07;;;25.03;;
20101;SDS011;10210;52.284;9.892;2023-02-11T07:18:59;43.40;;;25.00;;
20101;SDS011;10210;52.284;9.892;2023-02-11T07:21:25;45.80;;;26.37;;
20101;SDS011;10210;52.284;9.892;2023-02-11T07:23:51;41.00;;;25.17;;
20101;SDS011;10210;52.284;9.892;2023-02-11T07:26:18;43.13;;;25.27;;
20101;SDS011;10210;52.284;9.892;2023-02-11T07:28:47;42.83;;;26.17;;
20101;SDS011;10210;52.284;9.892;2023-02-11T07:31:16;39.87;;;24.03;;
20101;SDS011;10210;52.284;9.892;2023-02-11T07:33:48;45.43;;;25.90;;
20101;SDS011;10210;52.284;9.892;2023-02-11T07:36:16;43.53;;;25.13;;
20101;SDS011;10210;52.284;9.892;2023-02-11T07:38:42;47.43;;;28.00;;
20101;SDS011;10210;52.284;9.892;2023-02-11T07:41:11;46.47;;;28.77;;
20101;SDS011;10210;52.284;9.892;2023-02-11T07:43:40;44.83;;;25.97;;
20101;SDS011;10210;52.284;9.892;2023-02-11T07:46:09;45.93;;;25.63;;
20101;SDS011;10210;52.284;9.892;2023-02-11T07:48:41;44.40;;;25.80;;
20101;SDS011;10210;52.284;9.892;2023-02-11T07:51:08;40.97;;;24.37;;
20101;SDS011;10210;52.284;9.892;2023-02-11T07:53:41;45.17;;;27.60;;
20101;SDS011;10210;52.284;9.892;2023-02-11T07:56:07;45.40;;;26.27;;
20101;SDS011;10210;52.284;9.892;2023-02-11T07:58:38;43.43;;;26.53;;
20101;SDS011;10210;52.284;9.892;2023-02-11T08:01:06;45.17;;;26.87;;
20101;SDS011;10210;52.284;9.892;2023-02-11T08:03:45;43.67;;;25.63;;
20101;SDS011;10210;52.284;9.892;2023-02-11T08:06:12;42.50;;;25.97;;
20101;SDS011;10210;52.284;9.892;2023-02-11T08:08:41;46.43;;;27.23;;
20101;SDS011;10210;52.284;9.892;2023-02-11T08:11:08;46.00;;;26.37;;
20101;SDS011;10210;52.284;9.892;2023-02-11T08:13:49;41.97;;;24.37;;
20101;SDS011;10210;52.284;9.892;2023-02-11T08:16:20;41.87;;;24.93;;
20101;SDS011;10210;52.284;9.892;2023-02-11T08:18:48;45.10;;;27.13;;
20101;SDS011;10210;52.284;9.892;2023-02-11T08:21:16;46.57;;;26.13;;
20101;SDS011;10210;52.284;9.892;2023-02-11T08:23:42;48.33;;;27.03;;
20101;SDS011;10210;52.284;9.892;2023-02-11T08:26:14;45.17;;;26.20;;
20101;SDS011;10210;52.284;9.892;2023-02-11T08:28:43;48.30;;;26.67;;
20101;SDS011;10210;52.284;9.892;2023-02-11T08:31:22;47.07;;;26.03;;
20101;SDS011;10210;52.284;9.892;2023-02-11T08:33:57;42.47;;;25.87;;
20101;SDS011;10210;52.284;9.892;2023-02-11T08:36:25;49.20;;;28.17;;
20101;SDS011;10210;52.284;9.892;2023-02-11T08:38:54;42.30;;;26.63;;
20101;SDS011;10210;52.284;9.892;2023-02-11T08:41:23;47.77;;;27.47;;
20101;SDS011;10210;52.284;9.892;2023-02-11T08:43:50;44.17;;;27.17;;
20101;SDS011;10210;52.284;9.892;2023-02-11T08:46:17;48.87;;;28.07;;
20101;SDS011;10210;52.284;9.892;2023-02-11T08:48:44;51.63;;;28.07;;
20101;SDS011;10210;52.284;9.892;2023-02-11T08:51:16;44.53;;;27.40;;
20101;SDS011;10210;52.284;9.892;2023-02-11T08:53:45;45.70;;;26.73;;
20101;SDS011;10210;52.284;9.892;2023-02-11T08:56:12;53.40;;;29.53;;
20101;SDS011;10210;52.284;9.892;2023-02-11T08:58:40;45.30;;;28.13;;
20101;SDS011;10210;52.284;9.892;2023-02-11T09:01:10;52.13;;;27.60;;
20101;SDS011;10210;52.284;9.892;2023-02-11T09:03:39;44.83;;;26.27;;
20101;SDS011;10210;52.284;9.892;2023-02-11T09:06:05;44.70;;;26.63;;
20101;SDS011;10210;52.284;9.892;2023-02-11T09:08:35;44.00;;;24.90;;
20101;SDS011;10210;52.284;9.892;2023-02-11T09:11:02;42.87;;;25.23;;
20101;SDS011;10210;52.284;9.892;2023-02-11T09:13:29;45.70;;;25.37;;
20101;SDS011;10210;52.284;9.892;2023-02-11T09:15:57;44.07;;;24.57;;
20101;SDS011;10210;52.284;9.892;2023-02-11T09:18:25;41.03;;;24.93;;
20101;SDS011;10210;52.284;9.892;2023-02-11T09:20:52;45.67;;;26.27;;
20101;SDS011;10210;52.284;9.892;2023-02-11T09:23:25;41.53;;;24.77;;
20101;SDS011;10210;52.284;9.892;2023-02-11T09:25:51;42.87;;;26.37;;
20101;SDS011;10210;52.284;9.892;2023-02-11T09:28:17;44.60;;;26.07;;
20101;SDS011;10210;52.284;9.892;2023-02-11T09:30:42;45.07;;;26.33;;
20101;SDS011;10210;52.284;9.892;2023-02-11T09:33:08;43.63;;;25.60;;
20101;SDS011;10210;52.284;9.892;2023-02-11T09:35:33;45.73;;;25.60;;
20101;SDS011;10210;52.284;9.892;2023-02-11T09:37:59;44.30;;;25.73;;
20101;SDS011;10210;52.284;9.892;2023-02-11T09:40:25;43.63;;;24.67;;
20101;SDS011;10210;52.284;9.892;2023-02-11T09:43:04;43.37;;;24.13;;
20101;SDS011;10210;52.284;9.892;2023-02-11T09:45:38;43.93;;;25.60;;
20101;SDS011;10210;52.284;9.892;2023-02-11T09:48:06;46.87;;;26.93;;
20101;SDS011;10210;52.284;9.892;2023-02-11T09:50:42;41.17;;;24.93;;
20101;SDS011;10210;52.284;9.892;2023-02-11T09:56:09;40.03;;;21.87;;
20101;SDS011;10210;52.284;9.892;2023-02-11T09:58:40;39.57;;;22.70;;
20101;SDS011;10210;52.284;9.892;2023-02-11T10:04:06;36.40;;;21.20;;
20101;SDS011;10210;52.284;9.892;2023-02-11T10:07:15;41.93;;;20.97;;
20101;SDS011;10210;52.284;9.892;2023-02-11T10:15:50;37.00;;;21.47;;
20101;SDS011;10210;52.284;9.892;2023-02-11T10:21:38;37.77;;;20.83;;
20101;SDS011;10210;52.284;9.892;2023-02-11T10:24:42;43.97;;;23.60;;
20101;SDS011;10210;52.284;9.892;2023-02-11T10:27:20;35.80;;;21.37;;
20101;SDS011;10210;52.284;9.892;2023-02-11T10:29:56;37.03;;;20.17;;
20101;SDS011;10210;52.284;9.892;2023-02-11T10:33:03;40.37;;;22.73;;
20101;SDS011;10210;52.284;9.892;2023-02-11T10:35:49;40.50;;;23.37;;
20101;SDS011;10210;52.284;9.892;2023-02-11T10:38:15;41.27;;;24.23;;
20101;SDS011;10210;52.284;9.892;2023-02-11T10:40:41;38.77;;;24.00;;
20101;SDS011;10210;52.284;9.892;2023-02-11T10:43:09;36.80;;;21.77;;
20101;SDS011;10210;52.284;9.892;2023-02-11T10:45:44;40.67;;;22.77;;
20101;SDS011;10210;52.284;9.892;2023-02-11T10:51:06;40.80;;;23.13;;
20101;SDS011;10210;52.284;9.892;2023-02-11T10:53:34;49.53;;;30.27;;
20101;SDS011;10210;52.284;9.892;2023-02-11T10:56:01;49.80;;;27.60;;
20101;SDS011;10210;52.284;9.892;2023-02-11T10:58:35;37.00;;;21.80;;
20101;SDS011;10210;52.284;9.892;2023-02-11T11:01:18;41.50;;;25.27;;
20101;SDS011;10210;52.284;9.892;2023-02-11T11:03:46;40.23;;;23.00;;
20101;SDS011;10210;52.284;9.892;2023-02-11T11:06:17;37.83;;;23.53;;
20101;SDS011;10210;52.284;9.892;2023-02-11T11:08:55;40.03;;;22.27;;
20101;SDS011;10210;52.284;9.892;2023-02-11T11:11:22;46.27;;;25.23;;
20101;SDS011;10210;52.284;9.892;2023-02-11T11:18:50;34.70;;;19.60;;
20101;SDS011;10210;52.284;9.892;2023-02-11T11:21:42;32.97;;;18.53;;
20101;SDS011;10210;52.284;9.892;2023-02-11T11:24:21;35.57;;;18.83;;
20101;SDS011;10210;52.284;9.892;2023-02-11T11:26:59;30.90;;;18.67;;
20101;SDS011;10210;52.284;9.892;2023-02-11T11:29:30;32.97;;;18.63;;
20101;SDS011;10210;52.284;9.892;2023-02-11T11:32:19;32.93;;;19.53;;
20101;SDS011;10210;52.284;9.892;2023-02-11T11:34:54;34.10;;;19.63;;
20101;SDS011;10210;52.284;9.892;2023-02-11T11:37:26;35.23;;;19.73;;
20101;SDS011;10210;52.284;9.892;2023-02-11T11:42:40;32.10;;;17.83;;
20101;SDS011;10210;52.284;9.892;2023-02-11T11:47:53;32.30;;;17.30;;
20101;SDS011;10210;52.284;9.892;2023-02-11T11:50:28;33.23;;;19.87;;
20101;SDS011;10210;52.284;9.892;2023-02-11T11:53:09;32.47;;;18.07;;
20101;SDS011;10210;52.284;9.892;2023-02-11T11:56:49;35.57;;;19.20;;
20101;SDS011;10210;52.284;9.892;2023-02-11T11:59:23;34.07;;;19.50;;
20101;SDS011;10210;52.284;9.892;2023-02-11T12:02:01;34.37;;;19.70;;
20101;SDS011;10210;52.284;9.892;2023-02-11T12:10:53;30.10;;;18.57;;
20101;SDS011;10210;52.284;9.892;2023-02-11T12:17:02;30.40;;;17.73;;
20101;SDS011;10210;52.284;9.892;2023-02-11T12:20:04;33.87;;;19.53;;
20101;SDS011;10210;52.284;9.892;2023-02-11T12:31:55;36.47;;;20.67;;
20101;SDS011;10210;52.284;9.892;2023-02-11T12:34:56;37.67;;;20.70;;
20101;SDS011;10210;52.284;9.892;2023-02-11T12:37:37;36.13;;;21.20;;
20101;SDS011;10210;52.284;9.892;2023-02-11T12:40:25;31.57;;;18.33;;
20101;SDS011;10210;52.284;9.892;2023-02-11T12:48:43;40.53;;;22.13;;
20101;SDS011;10210;52.284;9.892;2023-02-11T12:54:55;32.87;;;19.13;;
20101;SDS011;10210;52.284;9.892;2023-02-11T12:57:30;34.03;;;19.43;;
20101;SDS011;10210;52.284;9.892;2023-02-11T13:00:03;31.50;;;19.23;;
20101;SDS011;10210;52.284;9.892;2023-02-11T13:05:41;36.23;;;20.93;;
20101;SDS011;10210;52.284;9.892;2023-02-11T13:08:42;32.90;;;19.40;;
20101;SDS011;10210;52.284;9.892;2023-02-11T13:11:14;31.87;;;18.53;;
20101;SDS011;10210;52.284;9.892;2023-02-11T13:14:05;35.30;;;20.30;;
20101;SDS011;10210;52.284;9.892;2023-02-11T13:16:44;36.03;;;21.97;;
20101;SDS011;10210;52.284;9.892;2023-02-11T13:19:25;36.43;;;19.90;;
20101;SDS011;10210;52.284;9.892;2023-02-11T13:24:40;32.20;;;19.50;;
20101;SDS011;10210;52.284;9.892;2023-02-11T13:31:09;34.97;;;18.30;;
20101;SDS011;10210;52.284;9.892;2023-02-11T13:33:40;35.53;;;20.57;;
20101;SDS011;10210;52.284;9.892;2023-02-11T13:38:33;37.13;;;21.77;;
20101;SDS011;10210;52.284;9.892;2023-02-11T13:43:58;36.87;;;20.43;;
20101;SDS011;10210;52.284;9.892;2023-02-11T13:49:31;35.43;;;20.77;;
20101;SDS011;10210;52.284;9.892;2023-02-11T13:51:59;33.97;;;20.10;;
20101;SDS011;10210;52.284;9.892;2023-02-11T13:54:34;33.03;;;18.83;;
20101;SDS011;10210;52.284;9.892;2023-02-11T13:59:45;35.87;;;20.00;;
20101;SDS011;10210;52.284;9.892;2023-02-11T14:11:00;36.07;;;19.07;;
20101;SDS011;10210;52.284;9.892;2023-02-11T14:19:56;36.47;;;20.37;;
20101;SDS011;10210;52.284;9.892;2023-02-11T14:22:20;39.63;;;20.03;;
20101;SDS011;10210;52.284;9.892;2023-02-11T14:24:53;33.47;;;18.93;;
20101;SDS011;10210;52.284;9.892;2023-02-11T14:30:19;34.87;;;19.83;;
20101;SDS011;10210;52.284;9.892;2023-02-11T14:35:53;35.10;;;21.33;;
20101;SDS011;10210;52.284;9.892;2023-02-11T14:39:00;37.83;;;22.00;;
20101;SDS011;10210;52.284;9.892;2023-02-11T14:41:51;36.67;;;23.70;;
20101;SDS011;10210;52.284;9.892;2023-02-11T14:44:19;34.27;;;20.03;;
20101;SDS011;10210;52.284;9.892;2023-02-11T14:46:51;32.60;;;19.27;;
20101;SDS011;10210;52.284;9.892;2023-02-11T14:49:30;35.07;;;19.37;;
20101;SDS011;10210;52.284;9.892;2023-02-11T14:52:13;32.37;;;18.90;;
20101;SDS011;10210;52.284;9.892;2023-02-11T14:54:51;32.67;;;18.53;;
20101;SDS011;10210;52.284;9.892;2023-02-11T14:57:33;33.30;;;18.70;;
20101;SDS011;10210;52.284;9.892;2023-02-11T15:00:03;33.33;;;20.10;;
20101;SDS011;10210;52.284;9.892;2023-02-11T15:02:41;33.43;;;20.93;;
20101;SDS011;10210;52.284;9.892;2023-02-11T15:05:21;39.03;;;21.57;;
20101;SDS011;10210;52.284;9.892;2023-02-11T15:07:57;33.17;;;19.40;;
20101;SDS011;10210;52.284;9.892;2023-02-11T15:13:07;32.13;;;19.20;;
20101;SDS011;10210;52.284;9.892;2023-02-11T15:15:42;37.63;;;20.50;;
20101;SDS011;10210;52.284;9.892;2023-02-11T15:18:12;33.90;;;19.27;;
20101;SDS011;10210;52.284;9.892;2023-02-11T15:20:46;34.40;;;19.13;;
20101;SDS011;10210;52.284;9.892;2023-02-11T15:23:17;33.87;;;19.87;;
20101;SDS011;10210;52.284;9.892;2023-02-11T15:25:49;32.57;;;18.87;;
20101;SDS011;10210;52.284;9.892;2023-02-11T15:28:29;33.03;;;19.80;;
20101;SDS011;10210;52.284;9.892;2023-02-11T15:31:00;34.63;;;19.83;;
20101;SDS011;10210;52.284;9.892;2023-02-11T15:33:38;33.23;;;18.67;;
20101;SDS011;10210;52.284;9.892;2023-02-11T15:36:04;34.60;;;19.73;;
20101;SDS011;10210;52.284;9.892;2023-02-11T15:38:31;35.30;;;19.77;;
20101;SDS011;10210;52.284;9.892;2023-02-11T15:41:00;33.50;;;19.60;;
20101;SDS011;10210;52.284;9.892;2023-02-11T15:43:47;32.97;;;19.50;;
20101;SDS011;10210;52.284;9.892;2023-02-11T15:46:21;34.33;;;19.57;;
20101;SDS011;10210;52.284;9.892;2023-02-11T15:48:51;32.33;;;19.47;;
20101;SDS011;10210;52.284;9.892;2023-02-11T15:51:22;34.37;;;20.40;;
20101;SDS011;10210;52.284;9.892;2023-02-11T15:53:57;35.70;;;21.63;;
20101;SDS011;10210;52.284;9.892;2023-02-11T16:01:51;34.07;;;19.47;;
20101;SDS011;10210;52.284;9.892;2023-02-11T16:04:22;33.70;;;19.60;;
20101;SDS011;10210;52.284;9.892;2023-02-11T16:06:51;41.33;;;20.47;;
20101;SDS011;10210;52.284;9.892;2023-02-11T16:09:35;40.83;;;21.90;;
20101;SDS011;10210;52.284;9.892;2023-02-11T16:12:02;37.70;;;20.07;;
20101;SDS011;10210;52.284;9.892;2023-02-11T16:14:47;36.17;;;20.47;;
20101;SDS011;10210;52.284;9.892;2023-02-11T16:17:23;37.20;;;20.83;;
20101;SDS011;10210;52.284;9.892;2023-02-11T16:19:53;34.50;;;18.97;;
20101;SDS011;10210;52.284;9.892;2023-02-11T16:22:26;36.63;;;20.63;;
20101;SDS011;10210;52.284;9.892;2023-02-11T16:24:59;39.27;;;21.17;;
20101;SDS011;10210;52.284;9.892;2023-02-11T16:27:29;36.63;;;19.67;;
20101;SDS011;10210;52.284;9.892;2023-02-11T16:30:04;37.27;;;21.17;;
20101;SDS011;10210;52.284;9.892;2023-02-11T16:32:57;37.57;;;20.20;;
20101;SDS011;10210;52.284;9.892;2023-02-11T16:35:22;37.47;;;20.63;;
20101;SDS011;10210;52.284;9.892;2023-02-11T16:37:48;37.10;;;22.03;;
20101;SDS011;10210;52.284;9.892;2023-02-11T16:40:14;39.03;;;20.23;;
20101;SDS011;10210;52.284;9.892;2023-02-11T16:42:40;38.23;;;19.17;;
20101;SDS011;10210;52.284;9.892;2023-02-11T16:45:06;36.13;;;20.60;;
20101;SDS011;10210;52.284;9.892;2023-02-11T16:47:33;38.33;;;21.40;;
20101;SDS011;10210;52.284;9.892;2023-02-11T16:49:59;42.77;;;23.87;;
20101;SDS011;10210;52.284;9.892;2023-02-11T16:52:26;33.63;;;19.70;;
20101;SDS011;10210;52.284;9.892;2023-02-11T16:54:54;37.97;;;20.20;;
20101;SDS011;10210;52.284;9.892;2023-02-11T16:57:21;35.57;;;19.37;;
20101;SDS011;10210;52.284;9.892;2023-02-11T16:59:49;33.87;;;19.40;;
20101;SDS011;10210;52.284;9.892;2023-02-11T17:02:21;38.90;;;20.60;;
20101;SDS011;10210;52.284;9.892;2023-02-11T17:04:55;37.03;;;21.07;;
20101;SDS011;10210;52.284;9.892;2023-02-11T17:07:32;38.00;;;21.40;;
20101;SDS011;10210;52.284;9.892;2023-02-11T17:09:58;39.13;;;21.27;;